sensor_id;sensor_type;location;lat;lon;timestamp;temperature;humidity
75865;HTU21D;64510;46.704;38.274;2023-02-03T00:01:54;-0.19;95.95
75865;HTU21D;64510;46.704;38.274;2023-02-03T00:04:20;-0.21;96.13
75865;HTU21D;64510;46.704;38.274;2023-02-03T00:06:46;-0.23;96.46
75865;HTU21D;64510;46.704;38.274;2023-02-03T00:09:14;-0.20;96.78
75865;HTU21D;64510;46.704;38.274;2023-02-03T00:11:40;-0.17;96.63
75865;HTU21D;64510;46.704;38.274;2023-02-03T00:14:05;-0.16;96.61
75865;HTU21D;64510;46.704;38.274;2023-02-03T00:16:33;-0.16;96.29
75865;HTU21D;64510;46.704;38.274;2023-02-03T00:18:59;-0.21;96.16
75865;HTU21D;64510;46.704;38.274;2023-02-03T00:21:25;-0.22;96.24
75865;HTU21D;64510;46.704;38.274;2023-02-03T00:23:51;-0.22;96.29
75865;HTU21D;64510;46.704;38.274;2023-02-03T00:26:19;-0.24;96.22
75865;HTU21D;64510;46.704;38.274;2023-02-03T00:28:46;-0.25;96.10
75865;HTU21D;64510;46.704;38.274;2023-02-03T00:31:17;-0.26;96.07
75865;HTU21D;64510;46.704;38.274;2023-02-03T00:33:45;-0.31;95.99
75865;HTU21D;64510;46.704;38.274;2023-02-03T00:36:11;-0.34;96.18
75865;HTU21D;64510;46.704;38.274;2023-02-03T00:38:37;-0.36;96.39
75865;HTU21D;64510;46.704;38.274;2023-02-03T00:41:03;-0.38;96.08
75865;HTU21D;64510;46.704;38.274;2023-02-03T00:43:29;-0.42;95.97
75865;HTU21D;64510;46.704;38.274;2023-02-03T00:45:55;-0.44;95.87
75865;HTU21D;64510;46.704;38.274;2023-02-03T00:48:21;-0.45;95.91
75865;HTU21D;64510;46.704;38.274;2023-02-03T00:50:47;-0.44;95.93
75865;HTU21D;64510;46.704;38.274;2023-02-03T00:53:13;-0.44;95.98
75865;HTU21D;64510;46.704;38.274;2023-02-03T00:55:39;-0.44;95.78
75865;HTU21D;64510;46.704;38.274;2023-02-03T00:58:05;-0.47;95.69
75865;HTU21D;64510;46.704;38.274;2023-02-03T01:00:30;-0.50;95.79
75865;HTU21D;64510;46.704;38.274;2023-02-03T01:02:56;-0.51;95.78
75865;HTU21D;64510;46.704;38.274;2023-02-03T01:05:22;-0.51;95.76
75865;HTU21D;64510;46.704;38.274;2023-02-03T01:07:48;-0.53;95.72
75865;HTU21D;64510;46.704;38.274;2023-02-03T01:10:14;-0.55;95.77
75865;HTU21D;64510;46.704;38.274;2023-02-03T01:12:40;-0.54;95.78
75865;HTU21D;64510;46.704;38.274;2023-02-03T01:15:06;-0.57;95.78
75865;HTU21D;64510;46.704;38.274;2023-02-03T01:17:32;-0.57;95.90
75865;HTU21D;64510;46.704;38.274;2023-02-03T01:19:58;-0.56;95.94
75865;HTU21D;64510;46.704;38.274;2023-02-03T01:22:28;-0.57;95.85
75865;HTU21D;64510;46.704;38.274;2023-02-03T01:24:55;-0.59;95.79
75865;HTU21D;64510;46.704;38.274;2023-02-03T01:27:21;-0.60;95.73
75865;HTU21D;64510;46.704;38.274;2023-02-03T01:29:47;-0.64;95.72
75865;HTU21D;64510;46.704;38.274;2023-02-03T01:32:13;-0.65;95.73
75865;HTU21D;64510;46.704;38.274;2023-02-03T01:34:39;-0.67;95.83
75865;HTU21D;64510;46.704;38.274;2023-02-03T01:37:05;-0.67;95.79
75865;HTU21D;64510;46.704;38.274;2023-02-03T01:39:31;-0.69;95.87
75865;HTU21D;64510;46.704;38.274;2023-02-03T01:41:57;-0.70;95.97
75865;HTU21D;64510;46.704;38.274;2023-02-03T01:47:32;-0.69;96.02
75865;HTU21D;64510;46.704;38.274;2023-02-03T01:50:03;-0.72;96.01
75865;HTU21D;64510;46.704;38.274;2023-02-03T01:52:31;-0.71;96.00
75865;HTU21D;64510;46.704;38.274;2023-02-03T01:55:00;-0.71;96.01
75865;HTU21D;64510;46.704;38.274;2023-02-03T01:57:34;-0.72;95.96
75865;HTU21D;64510;46.704;38.274;2023-02-03T02:00:03;-0.73;95.89
75865;HTU21D;64510;46.704;38.274;2023-02-03T02:02:39;-0.75;95.98
75865;HTU21D;64510;46.704;38.274;2023-02-03T02:05:24;-0.75;95.98
75865;HTU21D;64510;46.704;38.274;2023-02-03T02:07:54;-0.77;95.98
75865;HTU21D;64510;46.704;38.274;2023-02-03T02:10:20;-0.77;96.06
75865;HTU21D;64510;46.704;38.274;2023-02-03T02:12:46;-0.80;96.05
75865;HTU21D;64510;46.704;38.274;2023-02-03T02:15:13;-0.81;96.04
75865;HTU21D;64510;46.704;38.274;2023-02-03T02:17:57;-0.82;96.04
75865;HTU21D;64510;46.704;38.274;2023-02-03T02:32:14;-0.95;96.17
75865;HTU21D;64510;46.704;38.274;2023-02-03T02:38:18;-0.99;96.26
75865;HTU21D;64510;46.704;38.274;2023-02-03T02:40:53;-1.01;96.29
75865;HTU21D;64510;46.704;38.274;2023-02-03T02:46:02;-1.01;96.29
75865;HTU21D;64510;46.704;38.274;2023-02-03T02:51:13;-1.00;96.31
75865;HTU21D;64510;46.704;38.274;2023-02-03T02:53:44;-0.99;96.30
75865;HTU21D;64510;46.704;38.274;2023-02-03T02:56:12;-1.00;96.33
75865;HTU21D;64510;46.704;38.274;2023-02-03T02:58:42;-1.02;96.42
75865;HTU21D;64510;46.704;38.274;2023-02-03T03:01:09;-1.00;96.44
75865;HTU21D;64510;46.704;38.274;2023-02-03T03:03:37;-0.99;96.42
75865;HTU21D;64510;46.704;38.274;2023-02-03T03:06:10;-0.98;96.39
75865;HTU21D;64510;46.704;38.274;2023-02-03T03:08:52;-0.99;96.35
75865;HTU21D;64510;46.704;38.274;2023-02-03T03:11:20;-0.99;96.35
75865;HTU21D;64510;46.704;38.274;2023-02-03T03:13:49;-0.99;96.33
75865;HTU21D;64510;46.704;38.274;2023-02-03T03:16:20;-0.99;96.34
75865;HTU21D;64510;46.704;38.274;2023-02-03T03:18:54;-0.97;96.33
75865;HTU21D;64510;46.704;38.274;2023-02-03T03:21:31;-0.97;96.33
75865;HTU21D;64510;46.704;38.274;2023-02-03T03:24:03;-0.99;96.33
75865;HTU21D;64510;46.704;38.274;2023-02-03T03:26:31;-0.98;96.32
75865;HTU21D;64510;46.704;38.274;2023-02-03T03:29:18;-1.03;96.25
75865;HTU21D;64510;46.704;38.274;2023-02-03T03:31:45;-1.09;96.24
75865;HTU21D;64510;46.704;38.274;2023-02-03T03:34:12;-1.09;96.30
75865;HTU21D;64510;46.704;38.274;2023-02-03T03:39:43;-1.08;96.58
75865;HTU21D;64510;46.704;38.274;2023-02-03T03:42:19;-1.06;96.58
75865;HTU21D;64510;46.704;38.274;2023-02-03T03:47:33;-1.06;96.87
75865;HTU21D;64510;46.704;38.274;2023-02-03T03:50:01;-1.08;96.77
75865;HTU21D;64510;46.704;38.274;2023-02-03T03:52:31;-1.04;96.80
75865;HTU21D;64510;46.704;38.274;2023-02-03T03:55:00;-1.03;96.68
75865;HTU21D;64510;46.704;38.274;2023-02-03T03:57:33;-1.01;96.68
75865;HTU21D;64510;46.704;38.274;2023-02-03T04:00:03;-1.02;96.59
75865;HTU21D;64510;46.704;38.274;2023-02-03T04:02:39;-1.01;96.65
75865;HTU21D;64510;46.704;38.274;2023-02-03T04:05:06;-1.02;96.70
75865;HTU21D;64510;46.704;38.274;2023-02-03T04:07:44;-1.03;96.59
75865;HTU21D;64510;46.704;38.274;2023-02-03T04:10:28;-1.05;96.50
75865;HTU21D;64510;46.704;38.274;2023-02-03T04:12:55;-1.09;96.52
75865;HTU21D;64510;46.704;38.274;2023-02-03T04:15:21;-1.09;96.54
75865;HTU21D;64510;46.704;38.274;2023-02-03T04:17:47;-1.10;96.53
75865;HTU21D;64510;46.704;38.274;2023-02-03T04:20:14;-1.11;96.56
75865;HTU21D;64510;46.704;38.274;2023-02-03T04:22:40;-1.12;96.57
75865;HTU21D;64510;46.704;38.274;2023-02-03T04:25:06;-1.11;96.62
75865;HTU21D;64510;46.704;38.274;2023-02-03T04:27:33;-1.12;96.57
75865;HTU21D;64510;46.704;38.274;2023-02-03T04:29:59;-1.14;96.60
75865;HTU21D;64510;46.704;38.274;2023-02-03T04:32:26;-1.16;96.65
75865;HTU21D;64510;46.704;38.274;2023-02-03T04:34:51;-1.17;96.58
75865;HTU21D;64510;46.704;38.274;2023-02-03T04:37:17;-1.18;96.70
75865;HTU21D;64510;46.704;38.274;2023-02-03T04:39:45;-1.17;96.67
75865;HTU21D;64510;46.704;38.274;2023-02-03T04:42:11;-1.16;96.81
75865;HTU21D;64510;46.704;38.274;2023-02-03T04:44:37;-1.11;97.15
75865;HTU21D;64510;46.704;38.274;2023-02-03T04:47:03;-1.06;97.18
75865;HTU21D;64510;46.704;38.274;2023-02-03T04:49:28;-1.01;97.03
75865;HTU21D;64510;46.704;38.274;2023-02-03T04:51:54;-0.98;97.11
75865;HTU21D;64510;46.704;38.274;2023-02-03T04:54:20;-0.95;97.16
75865;HTU21D;64510;46.704;38.274;2023-02-03T04:56:46;-0.91;97.17
75865;HTU21D;64510;46.704;38.274;2023-02-03T04:59:12;-0.85;97.42
75865;HTU21D;64510;46.704;38.274;2023-02-03T05:01:37;-0.76;97.44
75865;HTU21D;64510;46.704;38.274;2023-02-03T05:04:03;-0.64;97.80
75865;HTU21D;64510;46.704;38.274;2023-02-03T05:06:29;-0.50;97.96
75865;HTU21D;64510;46.704;38.274;2023-02-03T05:08:57;-0.35;98.26
75865;HTU21D;64510;46.704;38.274;2023-02-03T05:11:23;-0.22;98.32
75865;HTU21D;64510;46.704;38.274;2023-02-03T05:13:49;-0.08;98.39
75865;HTU21D;64510;46.704;38.274;2023-02-03T05:16:15;-0.00;98.29
75865;HTU21D;64510;46.704;38.274;2023-02-03T05:18:41;0.07;98.42
75865;HTU21D;64510;46.704;38.274;2023-02-03T05:21:07;0.20;98.64
75865;HTU21D;64510;46.704;38.274;2023-02-03T05:23:33;0.39;99.09
75865;HTU21D;64510;46.704;38.274;2023-02-03T05:25:59;0.53;98.84
75865;HTU21D;64510;46.704;38.274;2023-02-03T05:28:25;0.58;98.13
75865;HTU21D;64510;46.704;38.274;2023-02-03T05:30:51;0.58;97.45
75865;HTU21D;64510;46.704;38.274;2023-02-03T05:33:17;0.55;97.28
75865;HTU21D;64510;46.704;38.274;2023-02-03T05:35:43;0.54;97.26
75865;HTU21D;64510;46.704;38.274;2023-02-03T05:38:09;0.55;97.29
75865;HTU21D;64510;46.704;38.274;2023-02-03T05:40:35;0.58;97.13
75865;HTU21D;64510;46.704;38.274;2023-02-03T05:43:19;0.63;97.32
75865;HTU21D;64510;46.704;38.274;2023-02-03T05:45:45;0.65;97.25
75865;HTU21D;64510;46.704;38.274;2023-02-03T05:48:11;0.66;97.18
75865;HTU21D;64510;46.704;38.274;2023-02-03T05:50:37;0.66;97.23
75865;HTU21D;64510;46.704;38.274;2023-02-03T05:53:06;0.66;97.10
75865;HTU21D;64510;46.704;38.274;2023-02-03T05:55:34;0.65;97.01
75865;HTU21D;64510;46.704;38.274;2023-02-03T05:58:00;0.68;96.92
75865;HTU21D;64510;46.704;38.274;2023-02-03T06:00:26;0.71;97.02
75865;HTU21D;64510;46.704;38.274;2023-02-03T06:02:54;0.76;97.13
75865;HTU21D;64510;46.704;38.274;2023-02-03T06:05:21;0.81;97.17
75865;HTU21D;64510;46.704;38.274;2023-02-03T06:07:48;0.88;97.18
75865;HTU21D;64510;46.704;38.274;2023-02-03T06:10:14;0.95;97.25
75865;HTU21D;64510;46.704;38.274;2023-02-03T06:12:41;1.03;97.39
75865;HTU21D;64510;46.704;38.274;2023-02-03T06:15:07;1.13;97.62
75865;HTU21D;64510;46.704;38.274;2023-02-03T06:17:33;1.26;97.93
75865;HTU21D;64510;46.704;38.274;2023-02-03T06:20:04;1.38;97.72
75865;HTU21D;64510;46.704;38.274;2023-02-03T06:22:30;1.50;98.01
75865;HTU21D;64510;46.704;38.274;2023-02-03T06:24:56;1.63;97.67
75865;HTU21D;64510;46.704;38.274;2023-02-03T06:27:22;1.81;98.06
75865;HTU21D;64510;46.704;38.274;2023-02-03T06:29:49;1.96;97.79
75865;HTU21D;64510;46.704;38.274;2023-02-03T06:32:15;2.13;97.90
75865;HTU21D;64510;46.704;38.274;2023-02-03T06:34:40;2.24;98.11
75865;HTU21D;64510;46.704;38.274;2023-02-03T06:37:06;2.29;97.92
75865;HTU21D;64510;46.704;38.274;2023-02-03T06:39:32;2.29;97.22
75865;HTU21D;64510;46.704;38.274;2023-02-03T06:41:58;2.20;96.36
75865;HTU21D;64510;46.704;38.274;2023-02-03T06:44:24;2.17;96.69
75865;HTU21D;64510;46.704;38.274;2023-02-03T06:46:50;2.14;96.52
75865;HTU21D;64510;46.704;38.274;2023-02-03T06:49:17;2.15;96.68
75865;HTU21D;64510;46.704;38.274;2023-02-03T06:51:44;2.19;96.70
75865;HTU21D;64510;46.704;38.274;2023-02-03T06:54:11;2.23;96.31
75865;HTU21D;64510;46.704;38.274;2023-02-03T06:56:38;2.22;96.31
75865;HTU21D;64510;46.704;38.274;2023-02-03T06:59:04;2.15;96.08
75865;HTU21D;64510;46.704;38.274;2023-02-03T07:01:30;2.10;95.81
75865;HTU21D;64510;46.704;38.274;2023-02-03T07:03:57;2.05;95.69
75865;HTU21D;64510;46.704;38.274;2023-02-03T07:06:24;1.99;95.46
75865;HTU21D;64510;46.704;38.274;2023-02-03T07:08:57;1.96;95.36
75865;HTU21D;64510;46.704;38.274;2023-02-03T07:11:24;1.94;95.03
75865;HTU21D;64510;46.704;38.274;2023-02-03T07:13:51;1.93;95.06
75865;HTU21D;64510;46.704;38.274;2023-02-03T07:16:17;1.93;94.85
75865;HTU21D;64510;46.704;38.274;2023-02-03T07:18:43;1.96;94.95
75865;HTU21D;64510;46.704;38.274;2023-02-03T07:21:10;1.93;94.71
75865;HTU21D;64510;46.704;38.274;2023-02-03T07:23:36;1.86;94.54
75865;HTU21D;64510;46.704;38.274;2023-02-03T07:26:03;1.78;94.54
75865;HTU21D;64510;46.704;38.274;2023-02-03T07:28:30;1.75;94.61
75865;HTU21D;64510;46.704;38.274;2023-02-03T07:30:56;1.71;94.61
75865;HTU21D;64510;46.704;38.274;2023-02-03T07:33:22;1.67;94.69
75865;HTU21D;64510;46.704;38.274;2023-02-03T07:35:56;1.67;94.85
75865;HTU21D;64510;46.704;38.274;2023-02-03T07:38:23;1.67;94.88
75865;HTU21D;64510;46.704;38.274;2023-02-03T07:40:49;1.70;94.95
75865;HTU21D;64510;46.704;38.274;2023-02-03T07:43:15;1.72;95.12
75865;HTU21D;64510;46.704;38.274;2023-02-03T07:45:41;1.77;95.31
75865;HTU21D;64510;46.704;38.274;2023-02-03T07:48:07;1.85;95.17
75865;HTU21D;64510;46.704;38.274;2023-02-03T07:50:33;1.84;95.01
75865;HTU21D;64510;46.704;38.274;2023-02-03T07:52:59;1.83;94.98
75865;HTU21D;64510;46.704;38.274;2023-02-03T07:55:26;1.82;95.30
75865;HTU21D;64510;46.704;38.274;2023-02-03T07:57:54;1.87;95.28
75865;HTU21D;64510;46.704;38.274;2023-02-03T08:00:20;1.95;95.55
75865;HTU21D;64510;46.704;38.274;2023-02-03T08:02:46;2.01;95.40
75865;HTU21D;64510;46.704;38.274;2023-02-03T08:05:13;2.03;95.22
75865;HTU21D;64510;46.704;38.274;2023-02-03T08:07:39;2.06;95.33
75865;HTU21D;64510;46.704;38.274;2023-02-03T08:10:06;2.08;95.35
75865;HTU21D;64510;46.704;38.274;2023-02-03T08:12:32;2.12;95.60
75865;HTU21D;64510;46.704;38.274;2023-02-03T08:14:58;2.21;95.46
75865;HTU21D;64510;46.704;38.274;2023-02-03T08:17:24;2.28;95.47
75865;HTU21D;64510;46.704;38.274;2023-02-03T08:19:50;2.35;95.40
75865;HTU21D;64510;46.704;38.274;2023-02-03T08:22:16;2.41;95.45
75865;HTU21D;64510;46.704;38.274;2023-02-03T08:24:42;2.46;95.16
75865;HTU21D;64510;46.704;38.274;2023-02-03T08:27:14;2.51;95.08
75865;HTU21D;64510;46.704;38.274;2023-02-03T08:29:40;2.52;95.68
75865;HTU21D;64510;46.704;38.274;2023-02-03T08:32:18;2.57;95.23
75865;HTU21D;64510;46.704;38.274;2023-02-03T08:34:46;2.59;95.33
75865;HTU21D;64510;46.704;38.274;2023-02-03T08:37:14;2.61;95.10
75865;HTU21D;64510;46.704;38.274;2023-02-03T08:39:40;2.61;95.10
75865;HTU21D;64510;46.704;38.274;2023-02-03T08:42:06;2.64;95.20
75865;HTU21D;64510;46.704;38.274;2023-02-03T08:44:33;2.64;95.05
75865;HTU21D;64510;46.704;38.274;2023-02-03T08:46:59;2.61;95.23
75865;HTU21D;64510;46.704;38.274;2023-02-03T08:49:27;2.65;95.16
75865;HTU21D;64510;46.704;38.274;2023-02-03T08:51:54;2.70;95.30
75865;HTU21D;64510;46.704;38.274;2023-02-03T08:54:21;2.78;95.31
75865;HTU21D;64510;46.704;38.274;2023-02-03T08:56:47;2.84;95.34
75865;HTU21D;64510;46.704;38.274;2023-02-03T08:59:13;2.90;95.26
75865;HTU21D;64510;46.704;38.274;2023-02-03T09:01:40;2.99;95.33
75865;HTU21D;64510;46.704;38.274;2023-02-03T09:04:09;3.08;95.48
75865;HTU21D;64510;46.704;38.274;2023-02-03T09:06:35;3.19;95.39
75865;HTU21D;64510;46.704;38.274;2023-02-03T09:09:02;3.30;95.50
75865;HTU21D;64510;46.704;38.274;2023-02-03T09:11:28;3.43;95.45
75865;HTU21D;64510;46.704;38.274;2023-02-03T09:13:54;3.55;95.47
75865;HTU21D;64510;46.704;38.274;2023-02-03T09:16:23;3.68;95.43
75865;HTU21D;64510;46.704;38.274;2023-02-03T09:18:50;3.82;95.76
75865;HTU21D;64510;46.704;38.274;2023-02-03T09:21:16;4.01;95.75
75865;HTU21D;64510;46.704;38.274;2023-02-03T09:23:42;4.16;95.30
75865;HTU21D;64510;46.704;38.274;2023-02-03T09:26:11;4.28;95.65
75865;HTU21D;64510;46.704;38.274;2023-02-03T09:28:37;4.59;98.18
75865;HTU21D;64510;46.704;38.274;2023-02-03T09:31:08;5.00;98.02
75865;HTU21D;64510;46.704;38.274;2023-02-03T09:33:34;5.28;97.23
75865;HTU21D;64510;46.704;38.274;2023-02-03T09:36:01;5.42;96.04
75865;HTU21D;64510;46.704;38.274;2023-02-03T09:38:27;5.48;94.46
75865;HTU21D;64510;46.704;38.274;2023-02-03T09:44:06;5.40;93.87
75865;HTU21D;64510;46.704;38.274;2023-02-03T09:46:41;5.35;94.23
75865;HTU21D;64510;46.704;38.274;2023-02-03T09:52:02;5.37;94.36
75865;HTU21D;64510;46.704;38.274;2023-02-03T09:57:39;5.27;93.29
75865;HTU21D;64510;46.704;38.274;2023-02-03T10:00:29;5.05;93.52
75865;HTU21D;64510;46.704;38.274;2023-02-03T10:03:06;4.83;93.78
75865;HTU21D;64510;46.704;38.274;2023-02-03T10:13:48;4.39;94.38
75865;HTU21D;64510;46.704;38.274;2023-02-03T10:16:22;4.34;94.41
75865;HTU21D;64510;46.704;38.274;2023-02-03T10:18:53;4.32;94.65
75865;HTU21D;64510;46.704;38.274;2023-02-03T10:23:49;4.39;94.56
75865;HTU21D;64510;46.704;38.274;2023-02-03T10:26:20;4.32;94.59
75865;HTU21D;64510;46.704;38.274;2023-02-03T10:28:56;4.31;94.62
75865;HTU21D;64510;46.704;38.274;2023-02-03T10:31:26;4.29;94.64
75865;HTU21D;64510;46.704;38.274;2023-02-03T10:34:09;4.30;94.83
75865;HTU21D;64510;46.704;38.274;2023-02-03T10:42:07;4.26;94.66
75865;HTU21D;64510;46.704;38.274;2023-02-03T10:47:27;4.15;95.00
75865;HTU21D;64510;46.704;38.274;2023-02-03T10:50:06;4.08;95.02
75865;HTU21D;64510;46.704;38.274;2023-02-03T10:52:35;4.04;95.29
75865;HTU21D;64510;46.704;38.274;2023-02-03T10:55:07;4.05;94.94
75865;HTU21D;64510;46.704;38.274;2023-02-03T10:57:37;4.00;95.23
75865;HTU21D;64510;46.704;38.274;2023-02-03T11:00:29;3.92;95.20
75865;HTU21D;64510;46.704;38.274;2023-02-03T11:03:00;3.86;95.03
75865;HTU21D;64510;46.704;38.274;2023-02-03T11:05:28;3.80;95.12
75865;HTU21D;64510;46.704;38.274;2023-02-03T11:07:54;3.80;95.66
75865;HTU21D;64510;46.704;38.274;2023-02-03T11:10:36;3.84;95.34
75865;HTU21D;64510;46.704;38.274;2023-02-03T11:13:18;3.87;95.23
75865;HTU21D;64510;46.704;38.274;2023-02-03T11:21:43;3.65;95.32
75865;HTU21D;64510;46.704;38.274;2023-02-03T11:24:17;3.63;95.30
75865;HTU21D;64510;46.704;38.274;2023-02-03T11:27:04;3.63;95.26
75865;HTU21D;64510;46.704;38.274;2023-02-03T11:29:33;3.62;95.32
75865;HTU21D;64510;46.704;38.274;2023-02-03T11:35:16;3.59;95.46
75865;HTU21D;64510;46.704;38.274;2023-02-03T11:37:43;3.56;95.44
75865;HTU21D;64510;46.704;38.274;2023-02-03T11:42:38;3.52;95.68
75865;HTU21D;64510;46.704;38.274;2023-02-03T11:45:41;3.53;95.62
75865;HTU21D;64510;46.704;38.274;2023-02-03T11:48:36;3.50;95.64
75865;HTU21D;64510;46.704;38.274;2023-02-03T11:59:34;3.29;96.22
75865;HTU21D;64510;46.704;38.274;2023-02-03T12:02:09;3.23;96.07
75865;HTU21D;64510;46.704;38.274;2023-02-03T12:04:55;3.19;96.49
75865;HTU21D;64510;46.704;38.274;2023-02-03T12:24:06;3.25;96.90
75865;HTU21D;64510;46.704;38.274;2023-02-03T12:29:37;3.33;96.66
75865;HTU21D;64510;46.704;38.274;2023-02-03T12:32:21;3.34;96.64
75865;HTU21D;64510;46.704;38.274;2023-02-03T12:34:54;3.38;96.86
75865;HTU21D;64510;46.704;38.274;2023-02-03T12:37:26;3.39;96.65
75865;HTU21D;64510;46.704;38.274;2023-02-03T12:40:17;3.36;96.87
75865;HTU21D;64510;46.704;38.274;2023-02-03T12:43:24;3.35;96.67
75865;HTU21D;64510;46.704;38.274;2023-02-03T12:45:53;3.31;97.07
75865;HTU21D;64510;46.704;38.274;2023-02-03T12:48:23;3.31;97.28
75865;HTU21D;64510;46.704;38.274;2023-02-03T12:50:58;3.35;97.17
75865;HTU21D;64510;46.704;38.274;2023-02-03T12:53:32;3.38;97.36
75865;HTU21D;64510;46.704;38.274;2023-02-03T12:56:07;3.38;97.36
75865;HTU21D;64510;46.704;38.274;2023-02-03T12:58:58;3.36;97.22
75865;HTU21D;64510;46.704;38.274;2023-02-03T13:01:36;3.35;97.17
75865;HTU21D;64510;46.704;38.274;2023-02-03T13:06:56;3.38;97.39
75865;HTU21D;64510;46.704;38.274;2023-02-03T13:09:37;3.39;97.31
75865;HTU21D;64510;46.704;38.274;2023-02-03T13:12:24;3.39;97.20
75865;HTU21D;64510;46.704;38.274;2023-02-03T13:14:53;3.38;97.39
75865;HTU21D;64510;46.704;38.274;2023-02-03T13:17:24;3.36;97.40
75865;HTU21D;64510;46.704;38.274;2023-02-03T13:19:55;3.35;97.36
75865;HTU21D;64510;46.704;38.274;2023-02-03T13:22:22;3.29;97.27
75865;HTU21D;64510;46.704;38.274;2023-02-03T13:25:15;3.27;97.13
75865;HTU21D;64510;46.704;38.274;2023-02-03T13:38:56;3.08;97.65
75865;HTU21D;64510;46.704;38.274;2023-02-03T13:42:11;3.08;98.10
75865;HTU21D;64510;46.704;38.274;2023-02-03T13:44:35;3.04;98.71
75865;HTU21D;64510;46.704;38.274;2023-02-03T13:47:02;3.04;97.88
75865;HTU21D;64510;46.704;38.274;2023-02-03T13:49:33;3.03;98.47
75865;HTU21D;64510;46.704;38.274;2023-02-03T13:51:59;3.05;98.10
75865;HTU21D;64510;46.704;38.274;2023-02-03T13:54:36;3.09;98.16
75865;HTU21D;64510;46.704;38.274;2023-02-03T13:57:05;3.06;98.22
75865;HTU21D;64510;46.704;38.274;2023-02-03T13:59:44;3.08;98.09
75865;HTU21D;64510;46.704;38.274;2023-02-03T14:04:55;3.06;98.58
75865;HTU21D;64510;46.704;38.274;2023-02-03T14:07:37;3.04;98.75
75865;HTU21D;64510;46.704;38.274;2023-02-03T14:15:28;3.01;98.64
75865;HTU21D;64510;46.704;38.274;2023-02-03T14:17:58;2.98;99.62
75865;HTU21D;64510;46.704;38.274;2023-02-03T14:25:23;2.98;99.07
75865;HTU21D;64510;46.704;38.274;2023-02-03T14:28:03;2.99;99.10
75865;HTU21D;64510;46.704;38.274;2023-02-03T14:30:30;2.99;100.33
75865;HTU21D;64510;46.704;38.274;2023-02-03T14:32:58;3.00;99.50
75865;HTU21D;64510;46.704;38.274;2023-02-03T14:35:36;3.03;99.38
75865;HTU21D;64510;46.704;38.274;2023-02-03T14:40:56;3.03;99.34
75865;HTU21D;64510;46.704;38.274;2023-02-03T14:43:42;3.01;99.55
75865;HTU21D;64510;46.704;38.274;2023-02-03T14:54:17;2.97;100.06
75865;HTU21D;64510;46.704;38.274;2023-02-03T14:59:47;2.95;99.83
75865;HTU21D;64510;46.704;38.274;2023-02-03T15:02:22;2.94;100.04
75865;HTU21D;64510;46.704;38.274;2023-02-03T15:04:51;2.89;100.29
75865;HTU21D;64510;46.704;38.274;2023-02-03T15:07:38;2.88;100.32
75865;HTU21D;64510;46.704;38.274;2023-02-03T15:12:45;2.87;100.11
75865;HTU21D;64510;46.704;38.274;2023-02-03T15:15:22;2.85;100.20
75865;HTU21D;64510;46.704;38.274;2023-02-03T15:17:50;2.83;100.73
75865;HTU21D;64510;46.704;38.274;2023-02-03T15:20:24;2.81;100.21
75865;HTU21D;64510;46.704;38.274;2023-02-03T15:22:50;2.80;100.52
75865;HTU21D;64510;46.704;38.274;2023-02-03T15:25:18;2.76;101.75
75865;HTU21D;64510;46.704;38.274;2023-02-03T15:27:44;2.79;100.45
75865;HTU21D;64510;46.704;38.274;2023-02-03T15:30:24;2.80;102.57
75865;HTU21D;64510;46.704;38.274;2023-02-03T15:33:05;2.81;101.67
75865;HTU21D;64510;46.704;38.274;2023-02-03T15:35:34;2.79;101.57
75865;HTU21D;64510;46.704;38.274;2023-02-03T15:38:20;2.80;101.43
75865;HTU21D;64510;46.704;38.274;2023-02-03T15:40:52;2.78;101.47
75865;HTU21D;64510;46.704;38.274;2023-02-03T15:43:40;2.76;101.46
75865;HTU21D;64510;46.704;38.274;2023-02-03T15:46:21;2.78;101.06
75865;HTU21D;64510;46.704;38.274;2023-02-03T15:51:31;2.76;101.39
75865;HTU21D;64510;46.704;38.274;2023-02-03T15:56:37;2.75;101.02
75865;HTU21D;64510;46.704;38.274;2023-02-03T15:59:33;2.72;100.99
75865;HTU21D;64510;46.704;38.274;2023-02-03T16:02:06;2.70;101.38
75865;HTU21D;64510;46.704;38.274;2023-02-03T16:04:37;2.70;101.70
75865;HTU21D;64510;46.704;38.274;2023-02-03T16:07:03;2.70;102.55
75865;HTU21D;64510;46.704;38.274;2023-02-03T16:09:38;2.72;101.83
75865;HTU21D;64510;46.704;38.274;2023-02-03T16:12:17;2.74;101.59
75865;HTU21D;64510;46.704;38.274;2023-02-03T16:14:46;2.75;101.19
75865;HTU21D;64510;46.704;38.274;2023-02-03T16:17:30;2.74;100.95
75865;HTU21D;64510;46.704;38.274;2023-02-03T16:20:26;2.69;100.81
75865;HTU21D;64510;46.704;38.274;2023-02-03T16:23:24;2.61;100.61
75865;HTU21D;64510;46.704;38.274;2023-02-03T16:26:18;2.56;100.66
75865;HTU21D;64510;46.704;38.274;2023-02-03T16:31:48;2.51;100.75
75865;HTU21D;64510;46.704;38.274;2023-02-03T16:34:32;2.47;100.76
75865;HTU21D;64510;46.704;38.274;2023-02-03T16:40:14;2.44;100.42
75865;HTU21D;64510;46.704;38.274;2023-02-03T16:43:01;2.42;100.86
75865;HTU21D;64510;46.704;38.274;2023-02-03T16:45:52;2.41;100.68
75865;HTU21D;64510;46.704;38.274;2023-02-03T16:48:37;2.38;100.44
75865;HTU21D;64510;46.704;38.274;2023-02-03T16:51:22;2.34;100.89
75865;HTU21D;64510;46.704;38.274;2023-02-03T16:53:47;2.30;100.77
75865;HTU21D;64510;46.704;38.274;2023-02-03T16:56:13;2.27;100.86
75865;HTU21D;64510;46.704;38.274;2023-02-03T16:58:42;2.23;100.67
75865;HTU21D;64510;46.704;38.274;2023-02-03T17:01:08;2.22;100.87
75865;HTU21D;64510;46.704;38.274;2023-02-03T17:03:36;2.22;100.88
75865;HTU21D;64510;46.704;38.274;2023-02-03T17:06:10;2.22;100.67
75865;HTU21D;64510;46.704;38.274;2023-02-03T17:08:37;2.19;101.26
75865;HTU21D;64510;46.704;38.274;2023-02-03T17:11:10;2.16;101.32
75865;HTU21D;64510;46.704;38.274;2023-02-03T17:13:37;2.16;101.32
75865;HTU21D;64510;46.704;38.274;2023-02-03T17:16:08;2.14;101.32
75865;HTU21D;64510;46.704;38.274;2023-02-03T17:18:37;2.12;101.01
75865;HTU21D;64510;46.704;38.274;2023-02-03T17:21:05;2.09;100.92
75865;HTU21D;64510;46.704;38.274;2023-02-03T17:23:32;2.05;100.79
75865;HTU21D;64510;46.704;38.274;2023-02-03T17:25:58;2.01;100.77
75865;HTU21D;64510;46.704;38.274;2023-02-03T17:28:24;1.99;101.22
75865;HTU21D;64510;46.704;38.274;2023-02-03T17:30:58;1.99;101.21
75865;HTU21D;64510;46.704;38.274;2023-02-03T17:33:25;1.98;101.60
75865;HTU21D;64510;46.704;38.274;2023-02-03T17:36:09;1.99;101.61
75865;HTU21D;64510;46.704;38.274;2023-02-03T17:38:42;1.97;101.14
75865;HTU21D;64510;46.704;38.274;2023-02-03T17:41:16;1.94;101.14
75865;HTU21D;64510;46.704;38.274;2023-02-03T17:43:43;1.94;100.92
75865;HTU21D;64510;46.704;38.274;2023-02-03T17:46:11;1.90;101.84
75865;HTU21D;64510;46.704;38.274;2023-02-03T17:48:38;1.91;101.35
75865;HTU21D;64510;46.704;38.274;2023-02-03T17:51:15;1.91;101.29
75865;HTU21D;64510;46.704;38.274;2023-02-03T17:53:46;1.90;101.44
75865;HTU21D;64510;46.704;38.274;2023-02-03T17:56:15;1.91;101.57
75865;HTU21D;64510;46.704;38.274;2023-02-03T17:58:41;1.94;101.28
75865;HTU21D;64510;46.704;38.274;2023-02-03T18:03:33;2.00;101.05
75865;HTU21D;64510;46.704;38.274;2023-02-03T18:05:59;2.00;101.16